Time;durP1;ratioP1;P1;durP2;ratioP2;P2;SDS_P1;SDS_P2;PMS_P1;PMS_P2;Temp;Humidity;BMP_temperature;BMP_pressure;BME280_temperature;BME280_humidity;BME280_pressure;Samples;Min_cycle;Max_cycle;Signal;HPM_P1;HPM_P2
2022/11/25 00:01:07;;;;;;;20.27;3.95;;;7.30;99.90;;;;;;4908533;29;20130;-58
2022/11/25 00:03:34;;;;;;;24.52;4.25;;;7.30;99.90;;;;;;4907491;29;20134;-58
2022/11/25 00:06:33;;;;;;;18.35;4.30;;;7.30;99.90;;;;;;4907535;29;20043;-59
2022/11/25 00:09:05;;;;;;;19.45;4.70;;;7.30;99.90;;;;;;4907254;29;20048;-58
2022/11/25 00:11:34;;;;;;;15.10;4.63;;;7.20;99.90;;;;;;4905300;29;20047;-59
2022/11/25 00:14:00;;;;;;;22.70;4.35;;;7.30;99.90;;;;;;4906966;29;20531;-57
2022/11/25 00:16:26;;;;;;;19.35;3.95;;;7.30;99.90;;;;;;4894047;29;20162;-57
2022/11/25 00:18:54;;;;;;;19.65;4.28;;;7.30;99.90;;;;;;4906587;29;20134;-57
2022/11/25 00:21:22;;;;;;;19.08;4.43;;;7.30;99.90;;;;;;4905910;29;20066;-56
2022/11/25 00:23:52;;;;;;;16.83;5.03;;;7.40;99.90;;;;;;4906659;29;20066;-58
2022/11/25 00:26:19;;;;;;;17.02;4.00;;;7.30;99.90;;;;;;4902818;29;20055;-59
2022/11/25 00:28:46;;;;;;;21.45;3.97;;;7.30;99.90;;;;;;4906262;29;20055;-58
2022/11/25 00:31:18;;;;;;;23.83;4.55;;;7.30;99.90;;;;;;4903356;29;20042;-59
2022/11/25 00:33:45;;;;;;;18.58;3.58;;;7.40;99.90;;;;;;4905201;29;20052;-58
2022/11/25 00:36:21;;;;;;;18.50;4.47;;;7.30;99.90;;;;;;4903940;29;20048;-58
2022/11/25 00:38:51;;;;;;;15.65;3.85;;;7.40;99.90;;;;;;4905483;29;20101;-58
2022/11/25 00:46:45;;;;;;;20.85;4.07;;;7.40;99.90;;;;;;4888975;29;20064;-59
2022/11/25 00:49:11;;;;;;;20.85;4.50;;;7.50;99.90;;;;;;4904646;29;20075;-58
2022/11/25 00:51:38;;;;;;;16.77;3.80;;;7.50;99.90;;;;;;4909256;29;20142;-58
2022/11/25 00:54:04;;;;;;;17.75;4.18;;;7.50;99.90;;;;;;4905380;29;20082;-58
2022/11/25 00:56:29;;;;;;;20.63;4.65;;;7.50;99.90;;;;;;4905089;29;20135;-57
2022/11/25 00:58:56;;;;;;;20.42;4.57;;;7.50;99.90;;;;;;4907021;29;20499;-59
2022/11/25 01:01:22;;;;;;;17.25;3.97;;;7.50;99.90;;;;;;4906971;29;20170;-57
2022/11/25 01:03:49;;;;;;;19.15;4.38;;;7.40;99.90;;;;;;4907938;29;20062;-57
2022/11/25 01:06:15;;;;;;;19.50;4.72;;;7.40;99.90;;;;;;4904796;29;20503;-58
2022/11/25 01:08:41;;;;;;;23.23;5.32;;;7.40;99.90;;;;;;4907912;29;20062;-58
2022/11/25 01:11:11;;;;;;;17.88;4.22;;;7.40;99.90;;;;;;4902846;29;20104;-57
2022/11/25 01:13:37;;;;;;;24.38;4.97;;;7.40;99.90;;;;;;4903353;29;20107;-60
2022/11/25 01:16:04;;;;;;;19.35;4.32;;;7.40;99.90;;;;;;4904154;29;20163;-59
2022/11/25 01:18:30;;;;;;;18.23;4.53;;;7.40;99.90;;;;;;4905168;29;20054;-58
2022/11/25 01:21:06;;;;;;;21.98;4.13;;;7.40;99.90;;;;;;4904939;29;20056;-59
2022/11/25 01:23:32;;;;;;;15.57;4.53;;;7.40;99.90;;;;;;4904591;29;20048;-58
2022/11/25 01:26:12;;;;;;;18.50;4.20;;;7.40;99.90;;;;;;4907082;29;20398;-59
2022/11/25 01:28:38;;;;;;;20.13;4.22;;;7.40;99.90;;;;;;4907553;29;21725;-58
2022/11/25 01:31:13;;;;;;;18.70;4.47;;;7.40;99.90;;;;;;4903388;29;20067;-60
2022/11/25 01:33:40;;;;;;;21.17;4.47;;;7.40;99.90;;;;;;4907167;29;20052;-59
2022/11/25 01:36:09;;;;;;;21.90;5.22;;;7.40;99.90;;;;;;4905254;29;20044;-60
2022/11/25 01:38:35;;;;;;;19.85;4.97;;;7.40;99.90;;;;;;4906651;29;20102;-57
2022/11/25 01:41:02;;;;;;;20.38;4.93;;;7.40;99.90;;;;;;4907352;29;20067;-58
2022/11/25 01:43:28;;;;;;;17.95;5.15;;;7.40;99.90;;;;;;4902326;29;20467;-57
2022/11/25 01:46:20;;;;;;;21.85;4.63;;;7.30;99.90;;;;;;4903674;29;20183;-57
2022/11/25 01:48:50;;;;;;;22.30;4.80;;;7.30;99.90;;;;;;4905399;29;20051;-57
2022/11/25 01:51:55;;;;;;;24.83;4.75;;;7.30;99.90;;;;;;4905170;29;20483;-57
2022/11/25 01:54:24;;;;;;;20.20;5.15;;;7.30;99.90;;;;;;4909930;29;20057;-58
2022/11/25 01:56:57;;;;;;;18.67;4.90;;;7.30;99.90;;;;;;4911965;29;20514;-59
2022/11/25 01:59:23;;;;;;;;;;;7.30;99.90;;;;;;4877146;29;20055;-59
2022/11/25 02:01:49;;;;;;;18.98;4.72;;;7.20;99.90;;;;;;4912434;29;19923;-59
2022/11/25 02:04:18;;;;;;;20.63;4.70;;;7.40;99.90;;;;;;4907892;29;20106;-57
2022/11/25 02:06:51;;;;;;;23.27;5.10;;;7.30;99.90;;;;;;4909673;29;20506;-58
2022/11/25 02:09:18;;;;;;;21.00;5.18;;;7.30;99.90;;;;;;4906609;29;20051;-56
2022/11/25 02:11:45;;;;;;;18.88;4.78;;;7.40;99.90;;;;;;4909742;29;20075;-57
2022/11/25 02:14:13;;;;;;;20.77;4.88;;;7.30;99.90;;;;;;4907397;29;20123;-58
2022/11/25 02:16:39;;;;;;;16.27;4.50;;;7.40;99.90;;;;;;4907412;29;20088;-58
2022/11/25 02:19:15;;;;;;;22.48;5.30;;;7.40;99.90;;;;;;4900470;29;20052;-58
2022/11/25 02:21:45;;;;;;;23.17;5.65;;;7.40;99.90;;;;;;4907892;29;20055;-57
2022/11/25 02:24:36;;;;;;;22.00;5.68;;;7.30;99.90;;;;;;4906965;29;20130;-57
2022/11/25 02:27:01;;;;;;;20.73;5.30;;;7.40;99.90;;;;;;4910382;29;20541;-57
2022/11/25 02:29:27;;;;;;;23.23;4.93;;;7.40;99.90;;;;;;4908420;29;20076;-58
2022/11/25 02:31:53;;;;;;;25.02;5.63;;;7.40;99.90;;;;;;4906194;29;20051;-58
2022/11/25 02:34:19;;;;;;;21.92;5.47;;;7.40;99.90;;;;;;4905334;29;20054;-59
2022/11/25 02:36:45;;;;;;;22.20;5.10;;;7.40;99.90;;;;;;4904240;29;20122;-58
2022/11/25 02:39:11;;;;;;;32.83;6.40;;;7.40;99.90;;;;;;4915140;29;20052;-58
2022/11/25 02:41:50;;;;;;;19.88;5.55;;;7.40;99.90;;;;;;4911302;29;21428;-57
2022/11/25 02:44:16;;;;;;;20.33;5.38;;;7.40;99.90;;;;;;4908870;29;20052;-57
2022/11/25 02:46:42;;;;;;;16.90;5.78;;;7.40;99.90;;;;;;4909131;29;20060;-58
2022/11/25 02:49:07;;;;;;;17.45;5.30;;;7.40;99.90;;;;;;4907048;29;20047;-58
2022/11/25 02:51:33;;;;;;;25.20;5.93;;;7.30;99.90;;;;;;4908426;29;20994;-59
2022/11/25 02:54:00;;;;;;;21.88;5.63;;;7.40;99.90;;;;;;4890075;29;20487;-57
2022/11/25 02:56:32;;;;;;;25.13;6.05;;;7.30;99.90;;;;;;4906844;29;20048;-58
2022/11/25 02:58:58;;;;;;;17.15;5.07;;;7.40;99.90;;;;;;4889399;29;20890;-58
2022/11/25 03:01:25;;;;;;;22.88;5.55;;;7.40;99.90;;;;;;4904830;29;20423;-59
2022/11/25 03:03:50;;;;;;;23.60;6.40;;;7.40;99.90;;;;;;4911330;29;20051;-58
2022/11/25 03:06:16;;;;;;;27.27;6.05;;;7.40;99.90;;;;;;4910374;29;20055;-58
2022/11/25 03:08:43;;;;;;;19.95;5.88;;;7.40;99.90;;;;;;4907033;29;20583;-58
2022/11/25 03:11:09;;;;;;;22.50;5.68;;;7.40;99.90;;;;;;4905959;29;20492;-58
2022/11/25 03:13:34;;;;;;;23.08;5.20;;;7.40;99.90;;;;;;4905731;29;20058;-57
2022/11/25 03:16:01;;;;;;;25.65;6.18;;;7.40;99.90;;;;;;4907843;29;20059;-59
2022/11/25 03:18:27;;;;;;;21.73;5.35;;;7.50;99.90;;;;;;4888623;29;20164;-59
2022/11/25 03:20:54;;;;;;;21.20;5.75;;;7.50;99.90;;;;;;4908128;29;20276;-58
2022/11/25 03:23:20;;;;;;;19.48;5.53;;;7.50;99.90;;;;;;4908167;29;20962;-58
2022/11/25 03:25:45;;;;;;;25.00;6.35;;;7.50;99.90;;;;;;4886895;29;20060;-58
2022/11/25 03:28:11;;;;;;;25.42;6.25;;;7.50;99.90;;;;;;4905843;29;20058;-59
2022/11/25 03:30:37;;;;;;;29.88;6.78;;;7.60;99.90;;;;;;4904926;29;20048;-59
2022/11/25 03:33:04;;;;;;;21.98;6.43;;;7.60;99.90;;;;;;4906016;29;20058;-57
2022/11/25 03:35:29;;;;;;;23.95;6.95;;;7.60;99.90;;;;;;4903945;29;20062;-57
2022/11/25 03:37:55;;;;;;;21.17;6.68;;;7.60;99.90;;;;;;4906994;29;20055;-58
2022/11/25 03:40:21;;;;;;;25.95;7.00;;;7.60;99.90;;;;;;4913380;29;20510;-58
2022/11/25 03:42:47;;;;;;;23.48;6.78;;;7.60;99.90;;;;;;4907534;29;20056;-58
2022/11/25 03:45:14;;;;;;;22.13;6.18;;;7.60;99.90;;;;;;4907088;29;20063;-58
2022/11/25 03:47:43;;;;;;;23.05;7.65;;;7.70;99.90;;;;;;4909342;29;20047;-58
2022/11/25 03:50:11;;;;;;;25.90;7.35;;;7.70;99.90;;;;;;4906753;29;20044;-59
2022/11/25 03:52:37;;;;;;;23.70;7.05;;;7.70;99.90;;;;;;4905568;29;20059;-58
2022/11/25 03:55:05;;;;;;;24.77;7.03;;;7.70;99.90;;;;;;4895560;29;20040;-57
2022/11/25 04:00:53;;;;;;;23.80;7.23;;;7.70;99.90;;;;;;4861119;29;20068;-57
2022/11/25 04:03:19;;;;;;;22.40;7.28;;;7.90;99.90;;;;;;4837266;29;20320;-58
2022/11/25 04:05:45;;;;;;;25.05;7.63;;;7.80;99.90;;;;;;4850962;29;20064;-59
2022/11/25 04:08:11;;;;;;;33.53;8.05;;;7.80;99.90;;;;;;4850810;29;20476;-59
2022/11/25 04:10:36;;;;;;;27.38;8.32;;;7.80;99.90;;;;;;4866011;29;20066;-57
2022/11/25 04:13:02;;;;;;;28.02;9.43;;;7.80;99.90;;;;;;4863635;29;20048;-55
2022/11/25 04:15:28;;;;;;;25.23;8.55;;;7.80;99.90;;;;;;4857947;29;20068;-57
2022/11/25 04:17:54;;;;;;;23.05;8.32;;;7.80;99.90;;;;;;4862408;29;20072;-59
2022/11/25 04:20:20;;;;;;;24.52;8.68;;;7.70;99.90;;;;;;4860350;29;20064;-57
2022/11/25 04:22:45;;;;;;;24.73;8.82;;;7.80;99.90;;;;;;4862442;29;20152;-58
2022/11/25 04:25:11;;;;;;;30.48;9.80;;;7.80;99.90;;;;;;4845802;29;21000;-58
2022/11/25 04:27:37;;;;;;;25.08;9.73;;;7.80;99.90;;;;;;4862816;29;20056;-58
2022/11/25 04:30:04;;;;;;;28.15;9.52;;;7.80;99.90;;;;;;4852882;29;20484;-58
2022/11/25 04:32:30;;;;;;;31.88;9.43;;;7.70;99.90;;;;;;4903018;29;20574;-59
2022/11/25 04:34:55;;;;;;;31.20;9.40;;;7.80;99.90;;;;;;4903952;29;20048;-59
2022/11/25 04:37:21;;;;;;;27.85;10.02;;;7.80;99.90;;;;;;4905979;29;20059;-58
2022/11/25 04:39:47;;;;;;;30.85;9.68;;;7.80;99.90;;;;;;4907207;29;20095;-58
2022/11/25 04:42:31;;;;;;;30.08;10.10;;;7.80;99.90;;;;;;4907288;29;20045;-58
2022/11/25 04:44:58;;;;;;;27.20;10.07;;;7.80;99.90;;;;;;4907145;29;20044;-58
2022/11/25 04:47:24;;;;;;;27.80;9.88;;;7.80;99.90;;;;;;4906580;29;20047;-58
2022/11/25 04:49:50;;;;;;;29.33;9.30;;;7.90;99.90;;;;;;4906102;29;20521;-58
2022/11/25 04:52:16;;;;;;;34.00;10.40;;;7.80;99.90;;;;;;4906786;29;20138;-58
2022/11/25 04:54:41;;;;;;;28.85;9.85;;;7.80;99.90;;;;;;4896359;29;20126;-58
2022/11/25 04:57:12;;;;;;;28.40;9.95;;;7.70;99.90;;;;;;4907464;29;20059;-59
2022/11/25 04:59:38;;;;;;;31.88;10.05;;;7.80;99.90;;;;;;4889736;29;20099;-57
2022/11/25 05:02:05;;;;;;;26.55;9.90;;;7.80;99.90;;;;;;4906200;29;20048;-58
2022/11/25 05:04:30;;;;;;;25.45;9.70;;;7.80;99.90;;;;;;4887613;29;20451;-57
2022/11/25 05:06:56;;;;;;;25.35;9.73;;;7.80;99.90;;;;;;4905651;29;20103;-58
2022/11/25 05:09:22;;;;;;;27.20;9.32;;;7.90;99.90;;;;;;4887364;29;20047;-59
2022/11/25 05:11:48;;;;;;;33.55;10.77;;;7.80;99.90;;;;;;4905929;29;20463;-58
2022/11/25 05:14:14;;;;;;;30.40;10.13;;;7.80;99.90;;;;;;4905992;29;20052;-58
2022/11/25 05:16:40;;;;;;;25.98;9.80;;;7.90;99.90;;;;;;4905717;29;20510;-58
2022/11/25 05:19:05;;;;;;;31.10;10.38;;;7.90;99.90;;;;;;4911919;29;20086;-58
2022/11/25 05:21:32;;;;;;;30.83;10.82;;;7.90;99.90;;;;;;4913981;29;20059;-58
2022/11/25 05:23:58;;;;;;;33.55;10.60;;;7.80;99.90;;;;;;4910636;29;20036;-59
2022/11/25 05:26:23;;;;;;;27.92;10.60;;;7.90;99.90;;;;;;4913282;29;20055;-58
2022/11/25 05:28:49;;;;;;;26.63;10.57;;;7.90;99.90;;;;;;4911280;29;20040;-58
2022/11/25 05:31:15;;;;;;;25.95;10.88;;;7.90;99.90;;;;;;4911287;29;20055;-59
2022/11/25 05:33:41;;;;;;;35.28;11.25;;;7.90;99.90;;;;;;4907030;29;20111;-58
2022/11/25 05:36:07;;;;;;;31.13;10.85;;;7.90;99.90;;;;;;4888077;29;20082;-59
2022/11/25 05:38:33;;;;;;;31.38;11.27;;;7.90;99.90;;;;;;4905207;29;20044;-58
2022/11/25 05:41:04;;;;;;;34.88;11.15;;;7.80;99.90;;;;;;4904950;29;20055;-58
2022/11/25 05:43:30;;;;;;;25.60;10.63;;;7.80;99.90;;;;;;4904408;29;20059;-58
2022/11/25 05:45:58;;;;;;;28.52;11.23;;;7.80;99.90;;;;;;4906061;28;20563;-58
2022/11/25 05:48:23;;;;;;;28.42;11.93;;;7.90;99.90;;;;;;4904479;29;20138;-57
2022/11/25 05:50:49;;;;;;;35.65;11.90;;;7.90;99.90;;;;;;4903542;29;20161;-57
2022/11/25 05:53:16;;;;;;;27.13;10.98;;;7.80;99.90;;;;;;4902792;29;20047;-59
2022/11/25 05:55:43;;;;;;;29.10;11.10;;;7.90;99.90;;;;;;4902789;29;20048;-58
2022/11/25 05:58:09;;;;;;;26.80;11.02;;;7.90;99.90;;;;;;4904385;29;20056;-58
2022/11/25 06:00:35;;;;;;;32.72;11.55;;;7.90;99.90;;;;;;4903883;29;20062;-58
2022/11/25 06:03:01;;;;;;;28.20;11.07;;;7.90;99.90;;;;;;4906955;29;20057;-59
2022/11/25 06:05:27;;;;;;;33.40;12.43;;;7.90;99.90;;;;;;4895271;29;20043;-58
2022/11/25 06:07:52;;;;;;;31.67;11.93;;;7.90;99.90;;;;;;4904228;29;20044;-57
2022/11/25 06:10:19;;;;;;;28.75;11.57;;;7.90;99.90;;;;;;4904817;29;20052;-58
2022/11/25 06:12:45;;;;;;;36.13;11.80;;;7.90;99.90;;;;;;4901964;29;20067;-58
2022/11/25 06:15:11;;;;;;;32.80;11.55;;;7.90;99.90;;;;;;4900173;29;20151;-58
2022/11/25 06:17:37;;;;;;;31.75;11.13;;;7.90;99.90;;;;;;4900037;29;20107;-58
2022/11/25 06:20:05;;;;;;;29.50;11.32;;;7.90;99.90;;;;;;4901210;29;20098;-58
2022/11/25 06:22:30;;;;;;;28.95;11.38;;;7.90;99.90;;;;;;4901730;29;20044;-59
2022/11/25 06:24:56;;;;;;;32.88;12.00;;;7.90;99.90;;;;;;4883097;29;20960;-57
2022/11/25 06:27:22;;;;;;;37.38;11.43;;;7.90;99.90;;;;;;4902390;29;20154;-57
2022/11/25 06:29:48;;;;;;;31.17;11.05;;;7.90;99.90;;;;;;4901241;29;20087;-58
2022/11/25 06:32:13;;;;;;;30.98;11.30;;;8.00;99.90;;;;;;4901474;29;20047;-59
2022/11/25 06:34:41;;;;;;;29.98;11.23;;;7.90;99.90;;;;;;4894475;29;23992;-57
2022/11/25 06:37:07;;;;;;;28.48;11.50;;;7.90;99.90;;;;;;4901070;29;20931;-57
2022/11/25 06:39:34;;;;;;;29.08;11.52;;;7.90;99.90;;;;;;4908629;29;20140;-57
2022/11/25 06:41:59;;;;;;;28.42;10.55;;;7.90;99.90;;;;;;4901533;29;20134;-58
2022/11/25 06:44:26;;;;;;;29.35;10.70;;;7.90;99.90;;;;;;4885649;29;20051;-58
2022/11/25 06:46:51;;;;;;;27.90;10.77;;;8.00;99.90;;;;;;4907005;29;20118;-59
2022/11/25 06:49:17;;;;;;;26.05;11.02;;;8.00;99.90;;;;;;4907959;29;20174;-58
2022/11/25 06:51:43;;;;;;;25.63;10.80;;;8.00;99.90;;;;;;4901798;29;20054;-58
2022/11/25 06:54:09;;;;;;;29.60;10.40;;;8.00;99.90;;;;;;4903618;29;20051;-58
2022/11/25 06:56:35;;;;;;;35.83;11.15;;;8.00;99.90;;;;;;4906942;29;20139;-57
2022/11/25 06:59:02;;;;;;;22.85;10.43;;;8.00;99.90;;;;;;4903711;29;20049;-58
2022/11/25 07:01:29;;;;;;;26.40;9.75;;;8.00;99.90;;;;;;4908154;29;20051;-59
2022/11/25 07:04:02;;;;;;;25.10;10.05;;;8.00;99.90;;;;;;4903696;29;20472;-57
2022/11/25 07:06:29;;;;;;;28.58;10.13;;;8.00;99.90;;;;;;4903936;29;20099;-59
2022/11/25 07:08:55;;;;;;;23.60;9.60;;;8.00;99.90;;;;;;4896568;29;20059;-58
2022/11/25 07:11:25;;;;;;;25.35;10.25;;;8.00;99.90;;;;;;4903440;29;20142;-58
2022/11/25 07:14:00;;;;;;;25.27;10.13;;;8.00;99.90;;;;;;4901252;29;20043;-58
2022/11/25 07:16:27;;;;;;;30.80;10.30;;;8.00;99.90;;;;;;4907348;29;20493;-58
2022/11/25 07:18:53;;;;;;;20.77;9.10;;;8.10;99.90;;;;;;4887043;29;20048;-58
2022/11/25 07:21:22;;;;;;;24.45;8.98;;;8.10;99.90;;;;;;4908716;29;20056;-58
2022/11/25 07:23:49;;;;;;;22.63;8.77;;;8.10;99.90;;;;;;4910642;29;20142;-59
2022/11/25 07:26:18;;;;;;;20.42;8.80;;;8.10;99.90;;;;;;4907874;29;20064;-58
2022/11/25 07:28:44;;;;;;;23.17;7.93;;;8.10;99.90;;;;;;4908727;29;20052;-59
2022/11/25 07:31:22;;;;;;;20.73;8.82;;;8.10;99.90;;;;;;4889878;29;20143;-59
2022/11/25 07:33:53;;;;;;;22.60;10.30;;;8.20;99.90;;;;;;4900808;29;20055;-56
2022/11/25 07:36:19;;;;;;;21.25;8.60;;;8.20;99.90;;;;;;4886574;29;20147;-58
2022/11/25 07:38:45;;;;;;;20.35;8.73;;;8.20;99.90;;;;;;4906002;29;20076;-59
2022/11/25 07:41:19;;;;;;;19.35;7.72;;;8.30;99.90;;;;;;4907484;29;20455;-59
2022/11/25 07:43:46;;;;;;;19.17;7.55;;;8.30;99.90;;;;;;4885034;29;20075;-57
2022/11/25 07:46:13;;;;;;;20.10;7.53;;;8.30;99.90;;;;;;4903768;29;20075;-58
2022/11/25 07:48:39;;;;;;;20.52;6.93;;;8.30;99.90;;;;;;4883952;29;20768;-58
2022/11/25 07:51:12;;;;;;;15.48;6.22;;;8.30;99.90;;;;;;4904742;29;20051;-58
2022/11/25 07:53:38;;;;;;;19.20;5.90;;;8.40;99.90;;;;;;4906630;29;20079;-58
2022/11/25 07:56:04;;;;;;;17.98;6.57;;;8.30;99.90;;;;;;4904055;29;20118;-58
2022/11/25 07:58:30;;;;;;;16.60;6.28;;;8.30;99.90;;;;;;4903869;29;20055;-56
2022/11/25 08:00:55;;;;;;;16.10;5.68;;;8.30;99.90;;;;;;4898352;29;20052;-58
2022/11/25 08:03:21;;;;;;;16.63;5.35;;;8.30;99.90;;;;;;4901379;29;20063;-58
2022/11/25 08:05:47;;;;;;;15.77;5.38;;;8.30;99.90;;;;;;4884122;29;20059;-59
2022/11/25 08:08:13;;;;;;;16.58;5.25;;;8.40;99.90;;;;;;4901396;29;20056;-57
2022/11/25 08:10:39;;;;;;;13.77;4.93;;;8.30;99.90;;;;;;4903648;29;20062;-59
2022/11/25 08:13:05;;;;;;;15.48;4.50;;;8.30;99.90;;;;;;4887399;29;20142;-57
2022/11/25 08:15:32;;;;;;;13.82;4.15;;;8.30;99.90;;;;;;4902175;29;20048;-57
2022/11/25 08:17:57;;;;;;;13.10;4.53;;;8.30;99.90;;;;;;4901934;29;20043;-59
2022/11/25 08:20:23;;;;;;;11.18;4.40;;;8.30;99.90;;;;;;4900593;29;21973;-57
2022/11/25 08:22:49;;;;;;;15.57;5.00;;;8.30;99.90;;;;;;4901077;29;20119;-58
2022/11/25 08:25:15;;;;;;;15.98;4.43;;;8.20;99.90;;;;;;4884223;29;20056;-58
2022/11/25 08:27:40;;;;;;;18.90;5.20;;;8.20;99.90;;;;;;4906022;29;20165;-59
2022/11/25 08:30:07;;;;;;;12.60;4.22;;;8.20;99.90;;;;;;4903697;29;20538;-58
2022/11/25 08:32:37;;;;;;;21.77;5.15;;;8.20;99.90;;;;;;4902994;29;20154;-58
2022/11/25 08:35:04;;;;;;;13.52;4.70;;;8.20;99.90;;;;;;4901916;29;20051;-59
2022/11/25 08:37:31;;;;;;;14.38;4.45;;;8.20;99.90;;;;;;4892776;29;20048;-58
2022/11/25 08:39:56;;;;;;;12.15;4.53;;;8.10;99.90;;;;;;4905257;29;20943;-59
2022/11/25 08:42:22;;;;;;;15.23;4.45;;;8.20;99.90;;;;;;4903015;29;20080;-59
2022/11/25 08:44:55;;;;;;;12.07;4.82;;;8.30;99.90;;;;;;4902360;29;20167;-59
2022/11/25 08:47:22;;;;;;;12.45;4.38;;;8.20;99.90;;;;;;4871732;29;20058;-59
2022/11/25 08:49:52;;;;;;;11.25;4.78;;;8.20;99.90;;;;;;4891666;29;20126;-59
2022/11/25 08:52:18;;;;;;;14.15;4.55;;;8.20;99.90;;;;;;4888256;29;20063;-58
2022/11/25 08:54:44;;;;;;;10.20;4.68;;;8.30;99.90;;;;;;4887169;29;20712;-57
2022/11/25 08:57:10;;;;;;;12.15;4.85;;;8.20;99.90;;;;;;4889116;29;20042;-59
2022/11/25 08:59:36;;;;;;;7.95;4.32;;;8.30;99.90;;;;;;4904423;29;20055;-59
2022/11/25 09:02:02;;;;;;;12.25;4.10;;;8.40;99.90;;;;;;4885521;29;20150;-58
2022/11/25 09:04:28;;;;;;;16.48;4.50;;;8.30;99.90;;;;;;4902739;29;20735;-58
2022/11/25 09:06:53;;;;;;;16.40;5.38;;;8.30;99.90;;;;;;4884531;29;20056;-58
2022/11/25 09:09:19;;;;;;;18.52;4.95;;;8.30;99.90;;;;;;4903818;29;20059;-59
2022/11/25 09:11:45;;;;;;;11.43;4.50;;;8.40;99.90;;;;;;4903956;29;20055;-58
2022/11/25 09:14:11;;;;;;;14.13;4.80;;;8.40;99.90;;;;;;4894595;29;20130;-58
2022/11/25 09:16:36;;;;;;;12.27;4.50;;;8.40;99.90;;;;;;4901343;29;20856;-59
2022/11/25 09:19:03;;;;;;;12.55;5.28;;;8.50;99.90;;;;;;4902664;29;20192;-59
2022/11/25 09:21:28;;;;;;;14.63;5.18;;;8.60;99.90;;;;;;4900838;29;21058;-58
2022/11/25 09:23:54;;;;;;;12.18;5.03;;;8.60;99.90;;;;;;4903953;29;20048;-58
2022/11/25 09:26:26;;;;;;;13.20;4.97;;;8.60;99.90;;;;;;4903202;29;20052;-58
2022/11/25 09:28:52;;;;;;;12.63;5.18;;;8.70;99.90;;;;;;4901783;29;20049;-58
2022/11/25 09:31:18;;;;;;;14.90;5.10;;;8.70;99.90;;;;;;4907300;29;21026;-58
2022/11/25 09:33:44;;;;;;;11.95;4.35;;;8.80;99.90;;;;;;4889202;29;20104;-58
2022/11/25 09:36:12;;;;;;;11.35;5.30;;;8.80;99.90;;;;;;4908299;29;20047;-58
2022/11/25 09:38:38;;;;;;;15.52;4.45;;;8.90;99.90;;;;;;4909079;29;20051;-57
2022/11/25 09:47:48;;;;;;;17.55;8.18;;;9.00;99.90;;;;;;4898738;29;20055;-59
2022/11/25 09:50:52;;;;;;;21.73;9.27;;;9.20;99.90;;;;;;4885221;29;22332;-58
2022/11/25 09:53:26;;;;;;;18.77;8.50;;;9.20;99.90;;;;;;4900364;29;20055;-59
2022/11/25 09:55:57;;;;;;;15.90;8.93;;;9.20;99.90;;;;;;4898463;29;20554;-58
2022/11/25 09:58:29;;;;;;;18.10;7.00;;;9.30;99.90;;;;;;4900095;29;20740;-58
2022/11/25 10:00:55;;;;;;;20.52;9.38;;;9.40;99.90;;;;;;4902178;29;20843;-59
2022/11/25 10:03:37;;;;;;;15.23;8.63;;;9.50;99.90;;;;;;4884170;29;20383;-59
2022/11/25 10:06:15;;;;;;;15.77;7.35;;;9.60;99.90;;;;;;4904055;29;20060;-59
2022/11/25 10:09:01;;;;;;;18.15;7.57;;;9.70;99.90;;;;;;4891925;29;20047;-58
2022/11/25 10:11:35;;;;;;;16.90;7.15;;;9.80;99.90;;;;;;4904949;29;20143;-56
2022/11/25 10:14:14;;;;;;;13.35;5.88;;;9.90;99.90;;;;;;4903331;29;20056;-58
2022/11/25 10:16:49;;;;;;;16.83;5.40;;;9.90;99.90;;;;;;4888489;29;20059;-59
2022/11/25 10:19:37;;;;;;;9.48;5.00;;;10.00;99.90;;;;;;4909666;29;20115;-59
2022/11/25 10:22:11;;;;;;;13.68;4.05;;;10.10;99.90;;;;;;4907338;29;20408;-59
2022/11/25 10:24:37;;;;;;;10.13;4.90;;;10.10;99.90;;;;;;4906876;29;21028;-57
2022/11/25 10:27:10;;;;;;;13.65;4.13;;;10.30;99.90;;;;;;4908199;29;20138;-58
2022/11/25 10:29:37;;;;;;;17.88;6.85;;;10.30;99.90;;;;;;4906698;29;20052;-59
2022/11/25 10:32:24;;;;;;;13.50;5.68;;;10.40;99.90;;;;;;4889603;29;20503;-58
2022/11/25 10:34:55;;;;;;;16.35;7.03;;;10.50;99.90;;;;;;4906309;29;20128;-57
2022/11/25 10:37:37;;;;;;;17.10;4.65;;;10.50;99.90;;;;;;4908477;29;20059;-58
2022/11/25 10:40:03;;;;;;;10.32;4.10;;;10.50;99.90;;;;;;4908583;29;20036;-58
2022/11/25 10:42:31;;;;;;;14.73;4.22;;;10.60;99.90;;;;;;4908649;29;20039;-58
2022/11/25 10:44:57;;;;;;;17.52;5.53;;;10.60;99.90;;;;;;4904029;29;21881;-58
2022/11/25 10:47:50;;;;;;;11.30;3.78;;;10.70;99.90;;;;;;4911211;29;20054;-59
2022/11/25 10:50:19;;;;;;;12.32;3.78;;;10.80;99.90;;;;;;4905216;29;20052;-57
2022/11/25 10:52:54;;;;;;;14.13;4.70;;;10.90;99.90;;;;;;4907934;29;20142;-59
2022/11/25 10:55:24;;;;;;;12.45;3.63;;;10.90;99.90;;;;;;4902449;29;20383;-58
2022/11/25 10:57:51;;;;;;;14.05;4.15;;;10.90;99.90;;;;;;4905043;29;21086;-58
2022/11/25 11:00:36;;;;;;;16.95;4.32;;;11.00;99.90;;;;;;4894719;29;20060;-58
2022/11/25 11:03:27;;;;;;;12.95;3.78;;;11.00;99.90;;;;;;4907231;29;20501;-59
2022/11/25 11:05:54;;;;;;;14.18;3.88;;;11.10;99.90;;;;;;4905743;29;20043;-58
2022/11/25 11:08:22;;;;;;;12.27;3.85;;;11.00;99.90;;;;;;4908319;29;20546;-59
2022/11/25 11:11:17;;;;;;;9.63;3.53;;;11.00;99.90;;;;;;4908354;29;20059;-58
2022/11/25 11:13:45;;;;;;;13.98;3.45;;;11.10;99.90;;;;;;4909427;29;20048;-57
2022/11/25 11:16:25;;;;;;;15.75;3.75;;;11.00;99.90;;;;;;4907144;29;20052;-58
2022/11/25 11:18:51;;;;;;;13.27;3.97;;;11.10;99.90;;;;;;4908038;29;20164;-58
2022/11/25 11:21:28;;;;;;;13.57;3.90;;;11.10;99.90;;;;;;4906647;29;20056;-59
2022/11/25 11:23:56;;;;;;;13.50;3.60;;;11.10;99.90;;;;;;4904471;29;20055;-58
2022/11/25 11:26:24;;;;;;;10.40;3.03;;;11.20;99.90;;;;;;4905938;29;21339;-59
2022/11/25 11:29:03;;;;;;;11.85;3.40;;;11.20;99.90;;;;;;4904061;29;20051;-58
2022/11/25 11:31:38;;;;;;;17.65;3.28;;;11.20;99.90;;;;;;4905309;29;20058;-59
2022/11/25 11:34:15;;;;;;;10.63;3.03;;;11.20;99.90;;;;;;4892587;29;20051;-58
2022/11/25 11:37:11;;;;;;;11.50;3.28;;;11.20;99.90;;;;;;4904481;29;20096;-57
2022/11/25 11:39:58;;;;;;;11.82;3.13;;;11.20;99.90;;;;;;4903973;29;20069;-58
2022/11/25 11:42:50;;;;;;;12.57;3.30;;;11.20;99.90;;;;;;4904547;29;20056;-57
2022/11/25 11:45:21;;;;;;;14.55;3.42;;;11.20;99.90;;;;;;4900460;28;20048;-59
2022/11/25 11:48:27;;;;;;;13.52;3.40;;;11.20;99.90;;;;;;4899902;29;20048;-57
2022/11/25 11:51:13;;;;;;;14.23;3.55;;;11.20;99.90;;;;;;4858099;29;20056;-58
2022/11/25 11:53:50;;;;;;;13.82;3.05;;;11.20;99.90;;;;;;4902822;29;21066;-58
2022/11/25 11:56:23;;;;;;;15.20;3.30;;;11.20;99.90;;;;;;4905551;29;20126;-58
2022/11/25 11:59:14;;;;;;;16.52;2.92;;;11.20;99.90;;;;;;4903035;29;20058;-59
2022/11/25 12:01:58;;;;;;;17.17;3.30;;;11.20;99.90;;;;;;4904460;29;20094;-58
2022/11/25 12:04:56;;;;;;;13.27;2.83;;;11.20;99.90;;;;;;4905694;29;20097;-58
2022/11/25 12:07:45;;;;;;;14.00;2.65;;;11.20;99.90;;;;;;4883705;29;20062;-58
2022/11/25 12:10:13;;;;;;;17.15;3.13;;;11.20;99.90;;;;;;4904665;29;20052;-59
2022/11/25 12:13:03;;;;;;;15.07;3.53;;;11.10;99.90;;;;;;4907007;29;20048;-59
2022/11/25 12:15:40;;;;;;;9.15;2.83;;;11.10;99.90;;;;;;4900247;29;20050;-58
2022/11/25 12:18:19;;;;;;;11.15;2.78;;;11.20;99.90;;;;;;4900958;29;21224;-58
2022/11/25 12:21:02;;;;;;;13.68;3.10;;;11.20;99.90;;;;;;4902097;29;20048;-58
2022/11/25 12:23:47;;;;;;;15.52;3.00;;;11.20;99.90;;;;;;4887116;29;20052;-57
2022/11/25 12:26:42;;;;;;;13.40;3.13;;;11.30;99.90;;;;;;4903443;29;20059;-62
2022/11/25 12:29:18;;;;;;;15.35;3.28;;;11.30;99.90;;;;;;4875220;29;20115;-59
2022/11/25 12:31:52;;;;;;;15.50;3.05;;;11.30;99.90;;;;;;4886985;29;20328;-57
2022/11/25 12:34:34;;;;;;;16.30;3.28;;;11.30;99.90;;;;;;4903044;29;20047;-59
2022/11/25 12:37:12;;;;;;;15.27;3.60;;;11.30;99.90;;;;;;4903160;29;20095;-58
2022/11/25 12:39:44;;;;;;;14.63;2.75;;;11.30;99.90;;;;;;4903870;29;20062;-58
2022/11/25 12:42:15;;;;;;;14.20;2.80;;;11.30;99.90;;;;;;4903132;29;20051;-58
2022/11/25 12:45:00;;;;;;;11.93;3.08;;;11.40;99.90;;;;;;4908398;28;20063;-58
2022/11/25 12:47:26;;;;;;;22.13;3.22;;;11.60;99.90;;;;;;4935196;28;20043;-58
2022/11/25 12:49:53;;;;;;;15.00;3.00;;;11.70;99.90;;;;;;4919483;28;20054;-58
2022/11/25 12:52:28;;;;;;;17.27;3.80;;;11.80;99.90;;;;;;4922773;28;20043;-58
2022/11/25 12:55:22;;;;;;;18.33;3.20;;;12.00;99.90;;;;;;4921855;28;20047;-58
2022/11/25 12:58:31;;;;;;;22.52;3.80;;;12.10;99.90;;;;;;4922036;28;20134;-59
2022/11/25 13:01:31;;;;;;;18.45;3.05;;;12.20;99.90;;;;;;4921499;28;20798;-58
2022/11/25 13:04:19;;;;;;;15.07;2.90;;;12.30;99.90;;;;;;4922004;28;20058;-59
2022/11/25 13:06:55;;;;;;;16.30;3.42;;;12.30;99.90;;;;;;4924019;28;20055;-57
2022/11/25 13:09:39;;;;;;;15.52;2.83;;;12.30;99.90;;;;;;4922167;28;20982;-58
2022/11/25 13:12:16;;;;;;;16.13;3.25;;;12.20;99.90;;;;;;4923649;28;20495;-58
2022/11/25 13:15:25;;;;;;;17.27;3.13;;;12.10;99.90;;;;;;4920983;28;20093;-58